sensor_id;sensor_type;location;lat;lon;timestamp;temperature;humidity
16301;DHT22;8258;51.020;4.248;2023-03-04T00:00:19;6.20;99.90
16301;DHT22;8258;51.020;4.248;2023-03-04T00:02:46;6.20;99.90
16301;DHT22;8258;51.020;4.248;2023-03-04T00:05:13;6.10;99.90
16301;DHT22;8258;51.020;4.248;2023-03-04T00:07:41;6.10;99.90
16301;DHT22;8258;51.020;4.248;2023-03-04T00:10:09;6.10;99.90
16301;DHT22;8258;51.020;4.248;2023-03-04T00:12:37;6.20;99.90
16301;DHT22;8258;51.020;4.248;2023-03-04T00:15:04;6.20;99.90
16301;DHT22;8258;51.020;4.248;2023-03-04T00:17:31;6.20;99.90
16301;DHT22;8258;51.020;4.248;2023-03-04T00:19:58;6.10;99.90
16301;DHT22;8258;51.020;4.248;2023-03-04T00:22:25;6.20;99.90
16301;DHT22;8258;51.020;4.248;2023-03-04T00:24:53;6.30;99.90
16301;DHT22;8258;51.020;4.248;2023-03-04T00:27:20;6.30;99.90
16301;DHT22;8258;51.020;4.248;2023-03-04T00:29:47;6.30;99.90
16301;DHT22;8258;51.020;4.248;2023-03-04T00:32:14;6.30;99.90
16301;DHT22;8258;51.020;4.248;2023-03-04T00:34:42;6.20;99.90
16301;DHT22;8258;51.020;4.248;2023-03-04T00:37:09;6.20;99.90
16301;DHT22;8258;51.020;4.248;2023-03-04T00:39:36;6.30;99.90
16301;DHT22;8258;51.020;4.248;2023-03-04T00:42:05;6.20;99.90
16301;DHT22;8258;51.020;4.248;2023-03-04T00:44:32;6.20;99.90
16301;DHT22;8258;51.020;4.248;2023-03-04T00:46:59;6.20;99.90
16301;DHT22;8258;51.020;4.248;2023-03-04T00:49:26;6.30;99.90
16301;DHT22;8258;51.020;4.248;2023-03-04T00:51:53;6.10;99.90
16301;DHT22;8258;51.020;4.248;2023-03-04T00:54:19;6.00;99.90
16301;DHT22;8258;51.020;4.248;2023-03-04T00:56:47;6.00;99.90
16301;DHT22;8258;51.020;4.248;2023-03-04T00:59:15;5.90;99.90
16301;DHT22;8258;51.020;4.248;2023-03-04T01:01:42;6.00;99.90
16301;DHT22;8258;51.020;4.248;2023-03-04T01:04:09;6.00;99.90
16301;DHT22;8258;51.020;4.248;2023-03-04T01:06:36;6.10;99.90
16301;DHT22;8258;51.020;4.248;2023-03-04T01:09:03;6.10;99.90
16301;DHT22;8258;51.020;4.248;2023-03-04T01:11:43;6.10;99.90
16301;DHT22;8258;51.020;4.248;2023-03-04T01:14:10;6.10;99.90
16301;DHT22;8258;51.020;4.248;2023-03-04T01:16:38;6.10;99.90
16301;DHT22;8258;51.020;4.248;2023-03-04T01:19:05;6.10;99.90
16301;DHT22;8258;51.020;4.248;2023-03-04T01:21:32;6.20;99.90
16301;DHT22;8258;51.020;4.248;2023-03-04T01:23:59;6.20;99.90
16301;DHT22;8258;51.020;4.248;2023-03-04T01:26:26;6.20;99.90
16301;DHT22;8258;51.020;4.248;2023-03-04T01:28:53;6.10;99.90
16301;DHT22;8258;51.020;4.248;2023-03-04T01:31:20;6.10;99.90
16301;DHT22;8258;51.020;4.248;2023-03-04T01:33:48;6.00;99.90
16301;DHT22;8258;51.020;4.248;2023-03-04T01:36:15;5.90;99.90
16301;DHT22;8258;51.020;4.248;2023-03-04T01:38:42;6.00;99.90
16301;DHT22;8258;51.020;4.248;2023-03-04T01:41:09;5.80;99.90
16301;DHT22;8258;51.020;4.248;2023-03-04T01:43:37;5.80;99.90
16301;DHT22;8258;51.020;4.248;2023-03-04T01:46:05;5.80;99.90
16301;DHT22;8258;51.020;4.248;2023-03-04T01:48:34;5.80;99.90
16301;DHT22;8258;51.020;4.248;2023-03-04T01:51:05;5.80;99.90
16301;DHT22;8258;51.020;4.248;2023-03-04T01:53:36;5.80;99.90
16301;DHT22;8258;51.020;4.248;2023-03-04T01:56:14;5.80;99.90
16301;DHT22;8258;51.020;4.248;2023-03-04T01:58:41;5.90;99.90
16301;DHT22;8258;51.020;4.248;2023-03-04T02:01:10;5.90;99.90
16301;DHT22;8258;51.020;4.248;2023-03-04T02:03:37;5.90;99.90
16301;DHT22;8258;51.020;4.248;2023-03-04T02:06:06;6.00;99.90
16301;DHT22;8258;51.020;4.248;2023-03-04T02:08:33;6.00;99.90
16301;DHT22;8258;51.020;4.248;2023-03-04T02:11:00;6.00;99.90
16301;DHT22;8258;51.020;4.248;2023-03-04T02:13:27;6.00;99.90
16301;DHT22;8258;51.020;4.248;2023-03-04T02:15:54;6.00;99.90
16301;DHT22;8258;51.020;4.248;2023-03-04T02:18:22;6.10;99.90
16301;DHT22;8258;51.020;4.248;2023-03-04T02:20:58;5.90;99.90
16301;DHT22;8258;51.020;4.248;2023-03-04T02:23:32;5.80;99.90
16301;DHT22;8258;51.020;4.248;2023-03-04T02:26:11;5.90;99.90
16301;DHT22;8258;51.020;4.248;2023-03-04T02:28:38;5.80;99.90
16301;DHT22;8258;51.020;4.248;2023-03-04T02:31:05;5.70;99.90
16301;DHT22;8258;51.020;4.248;2023-03-04T02:33:32;5.70;99.90
16301;DHT22;8258;51.020;4.248;2023-03-04T02:35:59;5.70;99.90
16301;DHT22;8258;51.020;4.248;2023-03-04T02:38:26;5.80;99.90
16301;DHT22;8258;51.020;4.248;2023-03-04T02:40:56;5.90;99.90
16301;DHT22;8258;51.020;4.248;2023-03-04T02:43:25;6.00;99.90
16301;DHT22;8258;51.020;4.248;2023-03-04T02:45:52;6.00;99.90
16301;DHT22;8258;51.020;4.248;2023-03-04T02:48:21;6.00;99.90
16301;DHT22;8258;51.020;4.248;2023-03-04T02:50:50;6.00;99.90
16301;DHT22;8258;51.020;4.248;2023-03-04T02:53:18;6.00;99.90
16301;DHT22;8258;51.020;4.248;2023-03-04T02:55:46;6.10;99.90
16301;DHT22;8258;51.020;4.248;2023-03-04T02:58:13;6.10;99.90
16301;DHT22;8258;51.020;4.248;2023-03-04T03:00:42;6.00;99.90
16301;DHT22;8258;51.020;4.248;2023-03-04T03:03:09;6.10;99.90
16301;DHT22;8258;51.020;4.248;2023-03-04T03:05:36;6.10;99.90
16301;DHT22;8258;51.020;4.248;2023-03-04T03:08:04;6.00;99.90
16301;DHT22;8258;51.020;4.248;2023-03-04T03:10:31;6.00;99.90
16301;DHT22;8258;51.020;4.248;2023-03-04T03:12:58;6.10;99.90
16301;DHT22;8258;51.020;4.248;2023-03-04T03:15:25;6.10;99.90
16301;DHT22;8258;51.020;4.248;2023-03-04T03:17:53;6.10;99.90
16301;DHT22;8258;51.020;4.248;2023-03-04T03:20:20;6.00;99.90
16301;DHT22;8258;51.020;4.248;2023-03-04T03:22:47;6.10;99.90
16301;DHT22;8258;51.020;4.248;2023-03-04T03:25:15;6.10;99.90
16301;DHT22;8258;51.020;4.248;2023-03-04T03:27:43;6.00;99.90
16301;DHT22;8258;51.020;4.248;2023-03-04T03:30:12;6.10;99.90
16301;DHT22;8258;51.020;4.248;2023-03-04T03:32:40;6.10;99.90
16301;DHT22;8258;51.020;4.248;2023-03-04T03:35:08;6.00;99.90
16301;DHT22;8258;51.020;4.248;2023-03-04T03:37:35;6.00;99.90
16301;DHT22;8258;51.020;4.248;2023-03-04T03:40:03;6.10;99.90
16301;DHT22;8258;51.020;4.248;2023-03-04T03:42:30;6.10;99.90
16301;DHT22;8258;51.020;4.248;2023-03-04T03:44:57;6.10;99.90
16301;DHT22;8258;51.020;4.248;2023-03-04T03:47:24;6.10;99.90
16301;DHT22;8258;51.020;4.248;2023-03-04T03:49:51;6.00;99.90
16301;DHT22;8258;51.020;4.248;2023-03-04T03:52:19;6.10;99.90
16301;DHT22;8258;51.020;4.248;2023-03-04T03:54:46;6.10;99.90
16301;DHT22;8258;51.020;4.248;2023-03-04T03:57:13;6.10;99.90
16301;DHT22;8258;51.020;4.248;2023-03-04T03:59:40;6.10;99.90
16301;DHT22;8258;51.020;4.248;2023-03-04T04:02:07;6.10;99.90
16301;DHT22;8258;51.020;4.248;2023-03-04T04:04:34;6.10;99.90
16301;DHT22;8258;51.020;4.248;2023-03-04T04:07:01;6.10;99.90
16301;DHT22;8258;51.020;4.248;2023-03-04T04:09:29;6.10;99.90
16301;DHT22;8258;51.020;4.248;2023-03-04T04:11:56;6.10;99.90
16301;DHT22;8258;51.020;4.248;2023-03-04T04:14:23;6.00;99.90
16301;DHT22;8258;51.020;4.248;2023-03-04T04:16:50;6.00;99.90
16301;DHT22;8258;51.020;4.248;2023-03-04T04:19:18;6.00;99.90
16301;DHT22;8258;51.020;4.248;2023-03-04T04:21:45;6.00;99.90
16301;DHT22;8258;51.020;4.248;2023-03-04T04:24:13;5.90;99.90
16301;DHT22;8258;51.020;4.248;2023-03-04T04:26:42;5.90;99.90
16301;DHT22;8258;51.020;4.248;2023-03-04T04:29:11;6.10;99.90
16301;DHT22;8258;51.020;4.248;2023-03-04T04:31:38;6.10;99.90
16301;DHT22;8258;51.020;4.248;2023-03-04T04:34:05;6.10;99.90
16301;DHT22;8258;51.020;4.248;2023-03-04T04:36:32;6.00;99.90
16301;DHT22;8258;51.020;4.248;2023-03-04T04:38:59;6.00;99.90
16301;DHT22;8258;51.020;4.248;2023-03-04T04:41:30;6.10;99.90
16301;DHT22;8258;51.020;4.248;2023-03-04T04:43:58;6.20;99.90
16301;DHT22;8258;51.020;4.248;2023-03-04T04:46:25;6.10;99.90
16301;DHT22;8258;51.020;4.248;2023-03-04T04:48:52;6.10;99.90
16301;DHT22;8258;51.020;4.248;2023-03-04T04:51:19;6.00;99.90
16301;DHT22;8258;51.020;4.248;2023-03-04T04:53:46;6.00;99.90
16301;DHT22;8258;51.020;4.248;2023-03-04T04:56:16;5.90;99.90
16301;DHT22;8258;51.020;4.248;2023-03-04T04:58:43;5.90;99.90
16301;DHT22;8258;51.020;4.248;2023-03-04T05:01:12;6.00;99.90
16301;DHT22;8258;51.020;4.248;2023-03-04T05:03:40;6.00;99.90
16301;DHT22;8258;51.020;4.248;2023-03-04T05:06:09;6.10;99.90
16301;DHT22;8258;51.020;4.248;2023-03-04T05:08:37;6.10;99.90
16301;DHT22;8258;51.020;4.248;2023-03-04T05:11:06;6.10;99.90
16301;DHT22;8258;51.020;4.248;2023-03-04T05:13:33;6.10;99.90
16301;DHT22;8258;51.020;4.248;2023-03-04T05:16:01;6.00;99.90
16301;DHT22;8258;51.020;4.248;2023-03-04T05:18:29;6.00;99.90
16301;DHT22;8258;51.020;4.248;2023-03-04T05:20:58;6.10;99.90
16301;DHT22;8258;51.020;4.248;2023-03-04T05:23:30;6.10;99.90
16301;DHT22;8258;51.020;4.248;2023-03-04T05:25:57;6.10;99.90
16301;DHT22;8258;51.020;4.248;2023-03-04T05:28:24;6.10;99.90
16301;DHT22;8258;51.020;4.248;2023-03-04T05:30:50;6.10;99.90
16301;DHT22;8258;51.020;4.248;2023-03-04T05:33:18;6.10;99.90
16301;DHT22;8258;51.020;4.248;2023-03-04T05:35:47;6.10;99.90
16301;DHT22;8258;51.020;4.248;2023-03-04T05:38:16;6.10;99.90
16301;DHT22;8258;51.020;4.248;2023-03-04T05:40:44;6.10;99.90
16301;DHT22;8258;51.020;4.248;2023-03-04T05:43:11;6.20;99.90
16301;DHT22;8258;51.020;4.248;2023-03-04T05:45:39;6.10;99.90
16301;DHT22;8258;51.020;4.248;2023-03-04T05:48:07;6.00;99.90
16301;DHT22;8258;51.020;4.248;2023-03-04T05:50:34;6.00;99.90
16301;DHT22;8258;51.020;4.248;2023-03-04T05:53:03;6.00;99.90
16301;DHT22;8258;51.020;4.248;2023-03-04T05:55:29;6.00;99.90
16301;DHT22;8258;51.020;4.248;2023-03-04T05:57:57;6.00;99.90
16301;DHT22;8258;51.020;4.248;2023-03-04T06:00:24;6.00;99.90
16301;DHT22;8258;51.020;4.248;2023-03-04T06:02:51;6.10;99.90
16301;DHT22;8258;51.020;4.248;2023-03-04T06:05:19;6.10;99.90
16301;DHT22;8258;51.020;4.248;2023-03-04T06:07:46;6.10;99.90
16301;DHT22;8258;51.020;4.248;2023-03-04T06:10:16;6.10;99.90
16301;DHT22;8258;51.020;4.248;2023-03-04T06:12:43;6.10;99.90
16301;DHT22;8258;51.020;4.248;2023-03-04T06:15:11;6.00;99.90
16301;DHT22;8258;51.020;4.248;2023-03-04T06:17:39;6.00;99.90
16301;DHT22;8258;51.020;4.248;2023-03-04T06:20:06;6.00;99.90
16301;DHT22;8258;51.020;4.248;2023-03-04T06:22:34;5.90;99.90
16301;DHT22;8258;51.020;4.248;2023-03-04T06:25:01;5.80;99.90
16301;DHT22;8258;51.020;4.248;2023-03-04T06:27:29;5.90;99.90
16301;DHT22;8258;51.020;4.248;2023-03-04T06:29:56;5.80;99.90
16301;DHT22;8258;51.020;4.248;2023-03-04T06:32:23;5.80;99.90
16301;DHT22;8258;51.020;4.248;2023-03-04T06:34:50;5.80;99.90
16301;DHT22;8258;51.020;4.248;2023-03-04T06:37:17;5.90;99.90
16301;DHT22;8258;51.020;4.248;2023-03-04T06:39:50;5.80;99.90
16301;DHT22;8258;51.020;4.248;2023-03-04T06:42:24;5.80;99.90
16301;DHT22;8258;51.020;4.248;2023-03-04T06:44:52;5.80;99.90
16301;DHT22;8258;51.020;4.248;2023-03-04T06:47:19;5.80;99.90
16301;DHT22;8258;51.020;4.248;2023-03-04T06:49:46;5.80;99.90
16301;DHT22;8258;51.020;4.248;2023-03-04T06:52:13;5.80;99.90
16301;DHT22;8258;51.020;4.248;2023-03-04T06:54:40;5.70;99.90
16301;DHT22;8258;51.020;4.248;2023-03-04T06:57:07;5.80;99.90
16301;DHT22;8258;51.020;4.248;2023-03-04T06:59:34;5.80;99.90
16301;DHT22;8258;51.020;4.248;2023-03-04T07:02:02;5.80;99.90
16301;DHT22;8258;51.020;4.248;2023-03-04T07:04:29;5.90;99.90
16301;DHT22;8258;51.020;4.248;2023-03-04T07:06:57;6.00;99.90
16301;DHT22;8258;51.020;4.248;2023-03-04T07:09:24;5.90;99.90
16301;DHT22;8258;51.020;4.248;2023-03-04T07:11:51;5.90;99.90
16301;DHT22;8258;51.020;4.248;2023-03-04T07:14:19;6.00;99.90
16301;DHT22;8258;51.020;4.248;2023-03-04T07:16:46;6.00;99.90
16301;DHT22;8258;51.020;4.248;2023-03-04T07:19:14;6.00;99.90
16301;DHT22;8258;51.020;4.248;2023-03-04T07:21:41;6.10;99.90
16301;DHT22;8258;51.020;4.248;2023-03-04T07:24:08;6.10;99.90
16301;DHT22;8258;51.020;4.248;2023-03-04T07:26:35;6.10;99.90
16301;DHT22;8258;51.020;4.248;2023-03-04T07:29:03;6.00;99.90
16301;DHT22;8258;51.020;4.248;2023-03-04T07:31:31;6.00;99.90
16301;DHT22;8258;51.020;4.248;2023-03-04T07:34:00;6.10;99.90
16301;DHT22;8258;51.020;4.248;2023-03-04T07:36:30;6.10;99.90
16301;DHT22;8258;51.020;4.248;2023-03-04T07:38:57;6.20;99.90
16301;DHT22;8258;51.020;4.248;2023-03-04T07:41:25;6.10;99.90
16301;DHT22;8258;51.020;4.248;2023-03-04T07:43:54;6.20;99.90
16301;DHT22;8258;51.020;4.248;2023-03-04T07:46:21;6.10;99.90
16301;DHT22;8258;51.020;4.248;2023-03-04T07:48:48;6.10;99.90
16301;DHT22;8258;51.020;4.248;2023-03-04T07:51:17;6.10;99.90
16301;DHT22;8258;51.020;4.248;2023-03-04T07:53:47;6.10;99.90
16301;DHT22;8258;51.020;4.248;2023-03-04T07:56:16;6.20;99.90
16301;DHT22;8258;51.020;4.248;2023-03-04T07:58:44;6.30;99.90
16301;DHT22;8258;51.020;4.248;2023-03-04T08:01:12;6.40;99.90
16301;DHT22;8258;51.020;4.248;2023-03-04T08:03:40;6.40;99.90
16301;DHT22;8258;51.020;4.248;2023-03-04T08:06:08;6.40;99.90
16301;DHT22;8258;51.020;4.248;2023-03-04T08:08:36;6.40;99.90
16301;DHT22;8258;51.020;4.248;2023-03-04T08:11:05;6.30;99.90
16301;DHT22;8258;51.020;4.248;2023-03-04T08:13:33;6.20;99.90
16301;DHT22;8258;51.020;4.248;2023-03-04T08:16:01;6.30;99.90
16301;DHT22;8258;51.020;4.248;2023-03-04T08:18:28;6.20;99.90
16301;DHT22;8258;51.020;4.248;2023-03-04T08:20:55;6.20;99.90
16301;DHT22;8258;51.020;4.248;2023-03-04T08:23:22;6.30;99.90
16301;DHT22;8258;51.020;4.248;2023-03-04T08:25:49;6.40;99.90
16301;DHT22;8258;51.020;4.248;2023-03-04T08:28:18;6.40;99.90
16301;DHT22;8258;51.020;4.248;2023-03-04T08:30:50;6.30;99.90
16301;DHT22;8258;51.020;4.248;2023-03-04T08:33:17;6.30;99.90
16301;DHT22;8258;51.020;4.248;2023-03-04T08:35:44;6.30;99.90
16301;DHT22;8258;51.020;4.248;2023-03-04T08:38:11;6.30;99.90
16301;DHT22;8258;51.020;4.248;2023-03-04T08:40:38;6.40;99.90
16301;DHT22;8258;51.020;4.248;2023-03-04T08:43:05;6.40;99.90
16301;DHT22;8258;51.020;4.248;2023-03-04T08:45:33;6.50;99.90
16301;DHT22;8258;51.020;4.248;2023-03-04T08:48:01;6.60;99.90
16301;DHT22;8258;51.020;4.248;2023-03-04T08:50:28;6.60;99.90
16301;DHT22;8258;51.020;4.248;2023-03-04T08:52:55;6.60;99.90
16301;DHT22;8258;51.020;4.248;2023-03-04T08:55:22;6.50;99.90
16301;DHT22;8258;51.020;4.248;2023-03-04T08:57:49;6.60;99.90
16301;DHT22;8258;51.020;4.248;2023-03-04T09:00:16;6.60;99.90
16301;DHT22;8258;51.020;4.248;2023-03-04T09:02:45;6.70;99.90
16301;DHT22;8258;51.020;4.248;2023-03-04T09:05:12;6.70;99.90
16301;DHT22;8258;51.020;4.248;2023-03-04T09:07:39;6.60;99.90
16301;DHT22;8258;51.020;4.248;2023-03-04T09:10:07;6.60;99.90
16301;DHT22;8258;51.020;4.248;2023-03-04T09:12:34;6.60;99.90
16301;DHT22;8258;51.020;4.248;2023-03-04T09:15:01;6.70;99.90
16301;DHT22;8258;51.020;4.248;2023-03-04T09:17:30;6.80;99.90
16301;DHT22;8258;51.020;4.248;2023-03-04T09:19:58;6.90;99.90
16301;DHT22;8258;51.020;4.248;2023-03-04T09:22:25;7.00;99.90
16301;DHT22;8258;51.020;4.248;2023-03-04T09:24:52;7.00;99.90
16301;DHT22;8258;51.020;4.248;2023-03-04T09:27:19;6.90;99.90
16301;DHT22;8258;51.020;4.248;2023-03-04T09:29:46;7.00;99.90
16301;DHT22;8258;51.020;4.248;2023-03-04T09:32:13;7.00;99.90
16301;DHT22;8258;51.020;4.248;2023-03-04T09:34:41;6.90;99.90
16301;DHT22;8258;51.020;4.248;2023-03-04T09:37:09;6.90;99.90
16301;DHT22;8258;51.020;4.248;2023-03-04T09:39:36;7.00;99.90
16301;DHT22;8258;51.020;4.248;2023-03-04T09:42:05;7.10;99.90
16301;DHT22;8258;51.020;4.248;2023-03-04T09:44:35;7.00;99.90
16301;DHT22;8258;51.020;4.248;2023-03-04T09:47:06;7.10;99.90
16301;DHT22;8258;51.020;4.248;2023-03-04T09:49:39;7.10;99.90
16301;DHT22;8258;51.020;4.248;2023-03-04T09:52:19;7.10;99.90
16301;DHT22;8258;51.020;4.248;2023-03-04T09:55:03;7.20;99.90
16301;DHT22;8258;51.020;4.248;2023-03-04T09:57:42;7.50;99.90
16301;DHT22;8258;51.020;4.248;2023-03-04T10:00:12;7.60;99.90
16301;DHT22;8258;51.020;4.248;2023-03-04T10:02:52;7.50;99.90
16301;DHT22;8258;51.020;4.248;2023-03-04T10:05:26;7.50;99.90
16301;DHT22;8258;51.020;4.248;2023-03-04T10:07:59;7.60;99.90
16301;DHT22;8258;51.020;4.248;2023-03-04T10:10:34;7.60;99.90
16301;DHT22;8258;51.020;4.248;2023-03-04T10:13:02;7.40;99.90
16301;DHT22;8258;51.020;4.248;2023-03-04T10:15:34;7.30;99.90
16301;DHT22;8258;51.020;4.248;2023-03-04T10:18:08;7.30;99.90
16301;DHT22;8258;51.020;4.248;2023-03-04T10:20:46;7.20;99.90
16301;DHT22;8258;51.020;4.248;2023-03-04T10:23:20;7.20;99.90
16301;DHT22;8258;51.020;4.248;2023-03-04T10:25:48;7.20;99.90
16301;DHT22;8258;51.020;4.248;2023-03-04T10:28:22;7.30;99.90
16301;DHT22;8258;51.020;4.248;2023-03-04T10:30:56;7.40;99.90
16301;DHT22;8258;51.020;4.248;2023-03-04T10:33:26;7.70;99.90
16301;DHT22;8258;51.020;4.248;2023-03-04T10:36:00;7.80;99.90
16301;DHT22;8258;51.020;4.248;2023-03-04T10:38:30;7.80;99.90
16301;DHT22;8258;51.020;4.248;2023-03-04T10:40:58;7.70;99.90
16301;DHT22;8258;51.020;4.248;2023-03-04T10:43:25;7.80;99.90
16301;DHT22;8258;51.020;4.248;2023-03-04T10:45:55;7.80;99.90
16301;DHT22;8258;51.020;4.248;2023-03-04T10:48:30;7.80;99.90
16301;DHT22;8258;51.020;4.248;2023-03-04T10:51:12;7.70;99.90
16301;DHT22;8258;51.020;4.248;2023-03-04T10:53:43;7.80;99.90
16301;DHT22;8258;51.020;4.248;2023-03-04T10:56:35;8.20;99.90
16301;DHT22;8258;51.020;4.248;2023-03-04T10:59:38;8.50;99.90
16301;DHT22;8258;51.020;4.248;2023-03-04T11:02:24;8.60;99.90
16301;DHT22;8258;51.020;4.248;2023-03-04T11:04:54;8.70;99.90
16301;DHT22;8258;51.020;4.248;2023-03-04T11:07:23;8.50;99.90
16301;DHT22;8258;51.020;4.248;2023-03-04T11:09:52;8.50;99.90
16301;DHT22;8258;51.020;4.248;2023-03-04T11:12:21;8.50;99.90
16301;DHT22;8258;51.020;4.248;2023-03-04T11:14:57;8.60;99.90
16301;DHT22;8258;51.020;4.248;2023-03-04T11:17:25;8.70;99.90
16301;DHT22;8258;51.020;4.248;2023-03-04T11:20:04;9.00;99.90
16301;DHT22;8258;51.020;4.248;2023-03-04T11:22:39;9.30;99.90
16301;DHT22;8258;51.020;4.248;2023-03-04T11:25:20;9.40;99.90
16301;DHT22;8258;51.020;4.248;2023-03-04T11:28:00;9.30;99.90
16301;DHT22;8258;51.020;4.248;2023-03-04T11:30:33;8.80;99.90
16301;DHT22;8258;51.020;4.248;2023-03-04T11:33:11;9.00;99.90
16301;DHT22;8258;51.020;4.248;2023-03-04T11:35:46;9.20;99.90
16301;DHT22;8258;51.020;4.248;2023-03-04T11:38:18;9.20;99.90
16301;DHT22;8258;51.020;4.248;2023-03-04T11:40:50;9.20;99.90
16301;DHT22;8258;51.020;4.248;2023-03-04T11:43:22;9.10;99.90
16301;DHT22;8258;51.020;4.248;2023-03-04T11:46:04;9.00;99.90
16301;DHT22;8258;51.020;4.248;2023-03-04T11:48:48;8.70;99.90
16301;DHT22;8258;51.020;4.248;2023-03-04T11:51:22;8.70;99.90
16301;DHT22;8258;51.020;4.248;2023-03-04T11:54:01;8.60;99.90
16301;DHT22;8258;51.020;4.248;2023-03-04T11:56:34;8.60;99.90
16301;DHT22;8258;51.020;4.248;2023-03-04T12:02:12;8.80;99.90
16301;DHT22;8258;51.020;4.248;2023-03-04T12:05:18;8.70;99.90
16301;DHT22;8258;51.020;4.248;2023-03-04T12:08:02;9.00;99.90
16301;DHT22;8258;51.020;4.248;2023-03-04T12:10:37;10.00;99.90
16301;DHT22;8258;51.020;4.248;2023-03-04T12:13:27;10.20;99.90
16301;DHT22;8258;51.020;4.248;2023-03-04T12:16:09;9.80;99.90
16301;DHT22;8258;51.020;4.248;2023-03-04T12:18:47;9.40;99.90
16301;DHT22;8258;51.020;4.248;2023-03-04T12:21:30;9.20;99.90
16301;DHT22;8258;51.020;4.248;2023-03-04T12:24:35;9.00;99.90
16301;DHT22;8258;51.020;4.248;2023-03-04T12:27:10;9.00;99.90
16301;DHT22;8258;51.020;4.248;2023-03-04T12:29:46;9.30;99.90
16301;DHT22;8258;51.020;4.248;2023-03-04T12:32:18;9.50;99.90
16301;DHT22;8258;51.020;4.248;2023-03-04T12:35:20;10.00;99.90
16301;DHT22;8258;51.020;4.248;2023-03-04T12:38:21;10.20;99.90
16301;DHT22;8258;51.020;4.248;2023-03-04T12:40:59;10.10;99.90
16301;DHT22;8258;51.020;4.248;2023-03-04T12:43:34;10.00;99.90
16301;DHT22;8258;51.020;4.248;2023-03-04T12:46:14;10.00;99.90
16301;DHT22;8258;51.020;4.248;2023-03-04T12:48:49;9.70;99.90
16301;DHT22;8258;51.020;4.248;2023-03-04T12:51:29;9.70;99.90
16301;DHT22;8258;51.020;4.248;2023-03-04T12:54:06;9.50;99.90
16301;DHT22;8258;51.020;4.248;2023-03-04T12:56:41;9.40;99.90
16301;DHT22;8258;51.020;4.248;2023-03-04T12:59:13;9.50;99.90
16301;DHT22;8258;51.020;4.248;2023-03-04T13:01:47;9.30;99.90
16301;DHT22;8258;51.020;4.248;2023-03-04T13:04:19;9.30;99.90
16301;DHT22;8258;51.020;4.248;2023-03-04T13:06:59;9.20;99.90
16301;DHT22;8258;51.020;4.248;2023-03-04T13:09:30;9.20;99.90
16301;DHT22;8258;51.020;4.248;2023-03-04T13:12:03;9.40;99.90
16301;DHT22;8258;51.020;4.248;2023-03-04T13:24:53;9.60;99.90
16301;DHT22;8258;51.020;4.248;2023-03-04T13:27:43;9.60;99.90
16301;DHT22;8258;51.020;4.248;2023-03-04T13:36:02;9.30;99.90
16301;DHT22;8258;51.020;4.248;2023-03-04T13:38:34;9.10;99.90
16301;DHT22;8258;51.020;4.248;2023-03-04T13:41:13;9.00;99.90
16301;DHT22;8258;51.020;4.248;2023-03-04T13:43:41;9.00;99.90
16301;DHT22;8258;51.020;4.248;2023-03-04T13:46:29;9.20;99.90
16301;DHT22;8258;51.020;4.248;2023-03-04T13:49:02;9.30;99.90
16301;DHT22;8258;51.020;4.248;2023-03-04T13:51:33;9.30;99.90
16301;DHT22;8258;51.020;4.248;2023-03-04T13:54:11;9.20;99.90
16301;DHT22;8258;51.020;4.248;2023-03-04T13:56:41;9.30;99.90
16301;DHT22;8258;51.020;4.248;2023-03-04T13:59:21;9.40;99.90
16301;DHT22;8258;51.020;4.248;2023-03-04T14:01:57;9.40;99.90
16301;DHT22;8258;51.020;4.248;2023-03-04T14:07:03;9.40;99.90
16301;DHT22;8258;51.020;4.248;2023-03-04T14:09:34;9.20;99.90
16301;DHT22;8258;51.020;4.248;2023-03-04T14:12:10;9.20;99.90
16301;DHT22;8258;51.020;4.248;2023-03-04T14:14:42;9.10;99.90
16301;DHT22;8258;51.020;4.248;2023-03-04T14:17:16;8.90;99.90
16301;DHT22;8258;51.020;4.248;2023-03-04T14:19:45;8.80;99.90
16301;DHT22;8258;51.020;4.248;2023-03-04T14:24:55;8.80;99.90
16301;DHT22;8258;51.020;4.248;2023-03-04T14:30:04;8.60;99.90
16301;DHT22;8258;51.020;4.248;2023-03-04T14:32:37;8.70;99.90
16301;DHT22;8258;51.020;4.248;2023-03-04T14:37:49;8.60;99.90
16301;DHT22;8258;51.020;4.248;2023-03-04T14:40:25;8.70;99.90
16301;DHT22;8258;51.020;4.248;2023-03-04T14:42:55;8.80;99.90
16301;DHT22;8258;51.020;4.248;2023-03-04T14:45:25;8.90;99.90
16301;DHT22;8258;51.020;4.248;2023-03-04T14:47:57;8.90;99.90
16301;DHT22;8258;51.020;4.248;2023-03-04T14:50:26;9.00;99.90
16301;DHT22;8258;51.020;4.248;2023-03-04T14:53:12;9.20;99.90
16301;DHT22;8258;51.020;4.248;2023-03-04T14:55:52;9.40;99.90
16301;DHT22;8258;51.020;4.248;2023-03-04T15:01:06;9.60;99.90
16301;DHT22;8258;51.020;4.248;2023-03-04T15:03:37;9.40;99.90
16301;DHT22;8258;51.020;4.248;2023-03-04T15:06:07;9.30;99.90
16301;DHT22;8258;51.020;4.248;2023-03-04T15:08:40;9.40;99.90
16301;DHT22;8258;51.020;4.248;2023-03-04T15:11:20;9.40;99.90
16301;DHT22;8258;51.020;4.248;2023-03-04T15:13:49;9.30;99.90
16301;DHT22;8258;51.020;4.248;2023-03-04T15:16:20;9.30;99.90
16301;DHT22;8258;51.020;4.248;2023-03-04T15:18:56;9.20;99.90
16301;DHT22;8258;51.020;4.248;2023-03-04T15:21:35;9.20;99.90
16301;DHT22;8258;51.020;4.248;2023-03-04T15:24:04;9.20;99.90
16301;DHT22;8258;51.020;4.248;2023-03-04T15:26:33;9.10;99.90
16301;DHT22;8258;51.020;4.248;2023-03-04T15:29:00;9.00;99.90
16301;DHT22;8258;51.020;4.248;2023-03-04T15:31:30;8.90;99.90
16301;DHT22;8258;51.020;4.248;2023-03-04T15:34:00;8.90;99.90
16301;DHT22;8258;51.020;4.248;2023-03-04T15:36:33;8.80;99.90
16301;DHT22;8258;51.020;4.248;2023-03-04T15:39:00;8.80;99.90
16301;DHT22;8258;51.020;4.248;2023-03-04T15:41:27;8.80;99.90
16301;DHT22;8258;51.020;4.248;2023-03-04T15:43:54;8.80;99.90
16301;DHT22;8258;51.020;4.248;2023-03-04T15:46:22;8.80;99.90
16301;DHT22;8258;51.020;4.248;2023-03-04T15:48:50;8.70;99.90
16301;DHT22;8258;51.020;4.248;2023-03-04T15:51:19;8.70;99.90
16301;DHT22;8258;51.020;4.248;2023-03-04T15:53:49;8.80;99.90
16301;DHT22;8258;51.020;4.248;2023-03-04T15:56:19;8.80;99.90
16301;DHT22;8258;51.020;4.248;2023-03-04T15:58:52;8.70;99.90
16301;DHT22;8258;51.020;4.248;2023-03-04T16:01:23;8.70;99.90
16301;DHT22;8258;51.020;4.248;2023-03-04T16:03:52;8.70;99.90
16301;DHT22;8258;51.020;4.248;2023-03-04T16:06:20;8.70;99.90
16301;DHT22;8258;51.020;4.248;2023-03-04T16:08:48;8.70;99.90
16301;DHT22;8258;51.020;4.248;2023-03-04T16:11:18;8.70;99.90
16301;DHT22;8258;51.020;4.248;2023-03-04T16:13:46;8.60;99.90
16301;DHT22;8258;51.020;4.248;2023-03-04T16:16:14;8.60;99.90
16301;DHT22;8258;51.020;4.248;2023-03-04T16:18:41;8.50;99.90
16301;DHT22;8258;51.020;4.248;2023-03-04T16:21:11;8.40;99.90
16301;DHT22;8258;51.020;4.248;2023-03-04T16:23:41;8.40;99.90
16301;DHT22;8258;51.020;4.248;2023-03-04T16:26:20;8.50;99.90
16301;DHT22;8258;51.020;4.248;2023-03-04T16:28:47;8.50;99.90
16301;DHT22;8258;51.020;4.248;2023-03-04T16:31:15;8.40;99.90
16301;DHT22;8258;51.020;4.248;2023-03-04T16:33:43;8.30;99.90
16301;DHT22;8258;51.020;4.248;2023-03-04T16:36:19;8.30;99.90
16301;DHT22;8258;51.020;4.248;2023-03-04T16:44:18;8.30;99.90
16301;DHT22;8258;51.020;4.248;2023-03-04T16:46:45;8.20;99.90
16301;DHT22;8258;51.020;4.248;2023-03-04T16:49:19;8.20;99.90
16301;DHT22;8258;51.020;4.248;2023-03-04T16:51:49;8.20;99.90
16301;DHT22;8258;51.020;4.248;2023-03-04T16:54:21;8.20;99.90
16301;DHT22;8258;51.020;4.248;2023-03-04T16:56:52;8.20;99.90
16301;DHT22;8258;51.020;4.248;2023-03-04T16:59:19;8.40;99.90